createdAt,value
2022-09-28T05:52:17.685Z,100508.03
2022-09-28T05:54:44.336Z,100510.72
2022-09-28T05:57:10.996Z,100506.66
2022-09-28T05:59:38.036Z,100519.69
2022-09-28T06:02:05.919Z,100510.03
2022-09-28T06:04:32.783Z,100507.66
2022-09-28T06:07:00.015Z,100516.44
2022-09-28T06:09:26.900Z,100511.69
2022-09-28T06:11:53.834Z,100516.75
2022-09-28T06:14:20.903Z,100515.56
2022-09-28T06:16:47.773Z,100515.03
2022-09-28T06:19:14.477Z,100524.19
2022-09-28T06:21:41.498Z,100516.22
2022-09-28T06:24:08.454Z,100513.66
2022-09-28T06:26:35.172Z,100518.41
2022-09-28T06:29:03.572Z,100524.00
2022-09-28T06:31:31.436Z,100525.16
2022-09-28T06:33:59.392Z,100537.00
2022-09-28T06:36:28.499Z,100535.34
2022-09-28T06:38:55.130Z,100535.16
2022-09-28T06:41:21.820Z,100538.72
2022-09-28T06:43:49.143Z,100544.84
2022-09-28T06:46:15.972Z,100547.56
2022-09-28T06:48:44.323Z,100542.13
2022-09-28T06:51:11.359Z,100547.56
2022-09-28T06:53:37.988Z,100539.41
2022-09-28T06:56:07.008Z,100539.25
2022-09-28T06:58:33.813Z,100541.09
2022-09-28T07:01:00.775Z,100541.09
2022-09-28T07:03:27.848Z,100546.19
2022-09-28T07:05:56.300Z,100547.06
2022-09-28T07:08:25.400Z,100556.88
2022-09-28T07:10:56.457Z,100552.97
2022-09-28T07:13:46.883Z,100550.97
2022-09-28T07:16:16.210Z,100556.75
2022-09-28T07:18:43.020Z,100559.13
2022-09-28T07:21:16.829Z,100559.63
2022-09-28T07:23:53.862Z,100553.72
2022-09-28T07:26:23.579Z,100556.09
2022-09-28T07:28:51.343Z,100551.34
2022-09-28T07:31:18.061Z,100547.28
2022-09-28T07:33:46.246Z,100548.22
2022-09-28T07:36:14.602Z,100551.78
2022-09-28T07:38:41.463Z,100548.72
2022-09-28T07:41:11.398Z,100554.00
2022-09-28T07:43:39.916Z,100549.41
2022-09-28T07:46:14.033Z,100546.03
2022-09-28T07:48:42.259Z,100552.31
2022-09-28T07:51:09.886Z,100551.66
2022-09-28T07:53:38.439Z,100554.53
2022-09-28T07:56:07.623Z,100551.47
2022-09-28T07:58:38.858Z,100557.38
2022-09-28T08:01:08.931Z,100559.91
2022-09-28T08:03:35.750Z,100559.38
2022-09-28T08:06:05.310Z,100557.59
2022-09-28T08:08:34.427Z,100559.06
2022-09-28T08:11:01.261Z,100560.50
2022-09-28T08:13:27.922Z,100552.44
2022-09-28T08:15:55.169Z,100550.44
2022-09-28T08:18:23.397Z,100557.78
2022-09-28T08:21:11.037Z,100551.28
2022-09-28T08:23:38.463Z,100554.09
2022-09-28T08:26:05.547Z,100551.19
2022-09-28T08:28:33.680Z,100545.59
2022-09-28T08:31:07.383Z,100551.31
2022-09-28T08:33:35.053Z,100548.16
2022-09-28T08:36:02.821Z,100555.94
2022-09-28T08:38:31.120Z,100548.53
2022-09-28T08:41:14.576Z,100554.47
2022-09-28T08:44:00.355Z,100551.19
2022-09-28T08:46:35.706Z,100545.31
2022-09-28T08:49:26.733Z,100546.69
2022-09-28T08:52:03.445Z,100545.66
2022-09-28T08:54:45.197Z,100545.88
2022-09-28T08:57:17.870Z,100542.31
2022-09-28T08:59:52.349Z,100537.50
2022-09-28T09:02:33.796Z,100543.97
2022-09-28T09:05:06.191Z,100551.31
2022-09-28T09:07:39.641Z,100559.28
2022-09-28T09:10:31.018Z,100538.44
2022-09-28T09:13:06.546Z,100540.22
2022-09-28T09:15:48.227Z,100548.69
2022-09-28T09:18:20.080Z,100542.94
2022-09-28T09:20:52.597Z,100547.69
2022-09-28T09:23:22.135Z,100538.34
2022-09-28T09:25:56.564Z,100541.72
2022-09-28T09:28:32.574Z,100546.06
2022-09-28T09:31:11.332Z,100542.22
2022-09-28T09:34:12.129Z,100535.72
2022-09-28T09:36:56.822Z,100533.84
2022-09-28T09:39:51.540Z,100539.25
2022-09-28T09:42:39.302Z,100537.28
2022-09-28T09:45:30.922Z,100533.38
2022-09-28T09:48:10.237Z,100532.00
2022-09-28T09:50:51.876Z,100522.56
2022-09-28T09:53:30.363Z,100529.88
2022-09-28T09:56:05.349Z,100533.06
2022-09-28T09:58:38.416Z,100540.41
2022-09-28T10:01:12.756Z,100533.81
2022-09-28T10:03:42.994Z,100523.81
2022-09-28T10:06:40.383Z,100525.53
2022-09-28T10:09:14.073Z,100531.88
2022-09-28T10:11:45.606Z,100522.84
2022-09-28T10:14:21.608Z,100520.63
2022-09-28T10:16:51.314Z,100524.66
2022-09-28T10:19:21.469Z,100523.03
2022-09-28T10:21:53.442Z,100524.03
2022-09-28T10:24:30.158Z,100523.16
2022-09-28T10:27:03.493Z,100524.16
2022-09-28T10:29:40.741Z,100526.63
2022-09-28T10:32:23.277Z,100524.34
2022-09-28T10:34:51.648Z,100519.03
2022-09-28T10:37:19.156Z,100524.72
2022-09-28T10:39:50.088Z,100519.88
2022-09-28T10:42:30.562Z,100516.25
2022-09-28T10:45:05.145Z,100513.63
2022-09-28T10:47:33.491Z,100517.06
2022-09-28T10:50:01.148Z,100509.72
2022-09-28T10:52:33.926Z,100512.47
2022-09-28T10:55:00.717Z,100507.56
2022-09-28T10:57:32.842Z,100503.97
2022-09-28T10:59:59.587Z,100498.00
2022-09-28T11:02:36.692Z,100499.22
2022-09-28T11:05:06.413Z,100507.22
2022-09-28T11:07:44.272Z,100499.47
2022-09-28T11:10:21.702Z,100495.75
2022-09-28T11:12:49.888Z,100486.84
2022-09-28T11:15:24.666Z,100493.00
2022-09-28T11:17:51.654Z,100486.91
2022-09-28T11:20:27.358Z,100488.19
2022-09-28T11:23:00.763Z,100484.44
2022-09-28T11:25:29.787Z,100483.63
2022-09-28T11:27:56.347Z,100484.56
2022-09-28T11:30:41.000Z,100478.50
2022-09-28T11:33:17.716Z,100466.03
2022-09-28T11:36:00.600Z,100465.75
2022-09-28T11:38:59.843Z,100464.19
2022-09-28T11:41:49.931Z,100465.44
2022-09-28T11:44:38.265Z,100465.91
2022-09-28T11:47:53.234Z,100466.78
2022-09-28T11:50:41.620Z,100458.69
2022-09-28T11:53:43.849Z,100458.94
2022-09-28T11:56:32.157Z,100451.59
2022-09-28T11:59:12.745Z,100460.31
2022-09-28T12:01:53.525Z,100461.09
2022-09-28T12:04:26.988Z,100458.31
2022-09-28T12:06:59.094Z,100454.28
2022-09-28T12:09:37.300Z,100455.16
2022-09-28T12:12:13.889Z,100457.16
2022-09-28T12:14:41.291Z,100451.38
2022-09-28T12:17:20.263Z,100460.44
2022-09-28T12:19:58.541Z,100452.41
2022-09-28T12:22:51.212Z,100455.66
2022-09-28T12:25:22.977Z,100460.31
2022-09-28T12:28:03.330Z,100462.56
2022-09-28T12:30:35.996Z,100461.72
2022-09-28T12:33:09.240Z,100464.19
2022-09-28T12:36:26.386Z,100468.78
2022-09-28T12:39:18.991Z,100463.97
2022-09-28T12:41:57.965Z,100454.47
2022-09-28T12:45:02.283Z,100457.63
2022-09-28T12:47:31.711Z,100454.66
2022-09-28T12:53:26.113Z,100458.63
2022-09-28T12:55:56.506Z,100449.34
2022-09-28T12:58:42.235Z,100451.44
2022-09-28T13:01:40.794Z,100445.53
2022-09-28T13:04:19.214Z,100451.44
2022-09-28T13:07:00.908Z,100441.81
2022-09-28T13:09:31.723Z,100446.09
2022-09-28T13:12:03.906Z,100445.28
2022-09-28T13:14:45.591Z,100451.22
2022-09-28T13:17:25.793Z,100444.47
2022-09-28T13:20:15.952Z,100445.97
2022-09-28T13:22:57.524Z,100440.06
2022-09-28T13:25:28.189Z,100446.22
2022-09-28T13:28:16.051Z,100438.19
2022-09-28T13:30:44.483Z,100447.00
2022-09-28T13:33:20.663Z,100431.22
2022-09-28T13:35:47.576Z,100438.06
2022-09-28T13:38:20.807Z,100435.09
2022-09-28T13:41:06.264Z,100431.91
2022-09-28T13:43:49.148Z,100415.75
2022-09-28T13:46:28.464Z,100417.69
2022-09-28T13:49:24.535Z,100438.50
2022-09-28T13:52:09.846Z,100441.69
2022-09-28T13:55:09.183Z,100431.63
2022-09-28T13:57:54.161Z,100435.75
2022-09-28T14:00:29.117Z,100457.13
2022-09-28T14:03:30.414Z,100441.91
2022-09-28T14:06:21.718Z,100450.56
2022-09-28T14:09:13.666Z,100440.91
2022-09-28T14:12:00.778Z,100440.72
2022-09-28T14:14:44.886Z,100442.63
2022-09-28T14:17:23.687Z,100441.97
2022-09-28T14:20:00.852Z,100434.56
2022-09-28T14:22:57.906Z,100440.38
2022-09-28T14:25:27.780Z,100436.06
2022-09-28T14:28:23.251Z,100435.66
2022-09-28T14:30:55.672Z,100441.41
2022-09-28T14:33:22.277Z,100453.16
2022-09-28T14:35:57.671Z,100445.69
2022-09-28T14:39:02.851Z,100439.66
2022-09-28T14:41:36.769Z,100445.25
2022-09-28T14:44:09.294Z,100416.19
2022-09-28T14:46:37.796Z,100438.41
2022-09-28T14:49:19.798Z,100427.97
2022-09-28T14:51:58.603Z,100426.56
2022-09-28T14:54:28.342Z,100424.06
2022-09-28T14:56:58.058Z,100425.91
2022-09-28T14:59:26.240Z,100425.44
2022-09-28T15:02:01.157Z,100411.34
2022-09-28T15:04:31.045Z,100406.50
2022-09-28T15:06:58.174Z,100411.84
2022-09-28T15:09:28.887Z,100383.44
2022-09-28T15:12:16.261Z,100395.03
2022-09-28T15:14:47.859Z,100393.69
2022-09-28T15:17:45.556Z,100388.88
2022-09-28T15:20:39.149Z,100406.41
2022-09-28T15:23:05.965Z,100411.38
2022-09-28T15:25:32.971Z,100405.22
2022-09-28T15:28:08.385Z,100405.63
2022-09-28T15:30:36.766Z,100403.22
2022-09-28T15:33:23.347Z,100402.75
2022-09-28T15:36:03.221Z,100418.31
2022-09-28T15:38:32.522Z,100408.38
2022-09-28T15:41:02.854Z,100398.34
2022-09-28T15:43:34.403Z,100438.91
2022-09-28T15:46:15.431Z,100423.50
2022-09-28T15:48:52.190Z,100414.19
2022-09-28T15:51:22.139Z,100395.34
2022-09-28T15:54:02.070Z,100425.53
2022-09-28T15:56:29.699Z,100395.94
2022-09-28T15:59:14.888Z,100389.13
2022-09-28T16:01:43.872Z,100387.50
2022-09-28T16:04:40.283Z,100387.34
2022-09-28T16:07:13.102Z,100398.91
2022-09-28T16:10:05.550Z,100405.44
2022-09-28T16:12:38.332Z,100406.97
2022-09-28T16:15:12.406Z,100409.50
2022-09-28T16:17:39.209Z,100398.44
2022-09-28T16:20:32.761Z,100402.16
2022-09-28T16:23:08.072Z,100401.00
2022-09-28T16:25:39.319Z,100401.47
2022-09-28T16:28:06.925Z,100402.22
2022-09-28T16:30:34.783Z,100400.69
2022-09-28T16:33:05.925Z,100402.19
2022-09-28T16:35:35.782Z,100400.41
2022-09-28T16:38:16.360Z,100401.31
2022-09-28T16:40:52.770Z,100402.88
2022-09-28T16:43:27.268Z,100414.25
2022-09-28T16:46:00.923Z,100414.25
2022-09-28T16:48:30.207Z,100410.47
2022-09-28T16:50:57.828Z,100423.19
2022-09-28T16:53:43.500Z,100421.94
2022-09-28T16:56:11.575Z,100432.91
2022-09-28T16:58:39.101Z,100434.56
2022-09-28T17:01:10.156Z,100423.41
2022-09-28T17:03:36.984Z,100426.78
2022-09-28T17:06:06.281Z,100427.63
2022-09-28T17:08:33.966Z,100427.41
2022-09-28T17:11:17.963Z,100445.97
2022-09-28T17:13:47.869Z,100443.03
2022-09-28T17:19:23.381Z,100437.72
2022-09-28T17:21:51.988Z,100441.69
2022-09-28T17:24:20.111Z,100443.81
2022-09-28T17:26:49.346Z,100442.75
2022-09-28T17:29:17.199Z,100441.25
2022-09-28T17:31:45.359Z,100449.88
2022-09-28T17:34:13.640Z,100445.25
2022-09-28T17:36:42.071Z,100453.69
2022-09-28T17:39:14.031Z,100455.78
2022-09-28T17:41:41.158Z,100452.84
2022-09-28T17:44:08.187Z,100458.31
2022-09-28T17:46:38.895Z,100450.53
2022-09-28T17:49:09.125Z,100458.13
2022-09-28T17:51:37.754Z,100456.63
2022-09-28T17:54:07.060Z,100452.63
2022-09-28T17:56:34.599Z,100453.66
2022-09-28T17:59:06.934Z,100452.16
2022-09-28T18:01:39.167Z,100456.94
2022-09-28T18:04:08.532Z,100468.31
2022-09-28T18:06:37.197Z,100458.63
2022-09-28T18:09:05.059Z,100465.16
2022-09-28T18:11:32.916Z,100462.44
2022-09-28T18:13:59.578Z,100467.25
2022-09-28T18:16:28.837Z,100467.81
2022-09-28T18:18:56.340Z,100476.63
2022-09-28T18:21:23.036Z,100464.34
2022-09-28T18:23:49.693Z,100474.38
2022-09-28T18:26:19.844Z,100470.72
2022-09-28T18:28:46.972Z,100483.28
2022-09-28T18:31:15.351Z,100470.25
2022-09-28T18:33:42.371Z,100473.44
2022-09-28T18:36:09.002Z,100477.63
2022-09-28T18:38:37.018Z,100482.00
2022-09-28T18:41:14.657Z,100468.28
2022-09-28T18:43:42.227Z,100469.50
2022-09-28T18:46:11.238Z,100471.50
2022-09-28T18:48:40.648Z,100480.72
2022-09-28T18:51:12.031Z,100478.13
2022-09-28T18:53:39.637Z,100475.53
2022-09-28T18:56:11.756Z,100476.28
2022-09-28T18:58:41.971Z,100488.00
2022-09-28T19:01:28.964Z,100485.22
2022-09-28T19:03:59.007Z,100496.25
2022-09-28T19:06:25.646Z,100502.31
2022-09-28T19:08:55.550Z,100493.84
2022-09-28T19:12:22.159Z,100501.59
2022-09-28T19:19:32.652Z,100509.19
2022-09-28T19:22:59.128Z,100508.91
2022-09-28T19:26:37.955Z,100513.25
2022-09-28T19:30:04.603Z,100514.19
2022-09-28T19:33:31.205Z,100513.69
2022-09-28T19:36:00.728Z,100520.75
2022-09-28T19:39:30.141Z,100530.34
2022-09-28T19:42:56.613Z,100535.72
2022-09-28T19:50:15.617Z,100536.00
2022-09-28T19:53:42.048Z,100537.41
2022-09-28T19:57:09.048Z,100532.34
2022-09-28T20:00:35.575Z,100543.59
2022-09-28T20:07:54.801Z,100536.19
2022-09-28T20:10:21.478Z,100541.13
2022-09-28T20:13:48.053Z,100538.78
2022-09-28T20:17:14.477Z,100534.75
2022-09-28T20:20:41.093Z,100550.63
2022-09-28T20:27:51.737Z,100553.44
2022-09-28T20:31:18.195Z,100560.94
2022-09-28T20:38:35.987Z,100558.28
2022-09-28T20:41:02.945Z,100564.97
2022-09-28T20:43:34.562Z,100567.41
2022-09-28T20:46:03.348Z,100567.97
2022-09-28T20:48:30.709Z,100567.28
2022-09-28T20:51:18.917Z,100575.81
2022-09-28T20:53:53.846Z,100570.94
2022-09-28T20:56:25.639Z,100570.44
2022-09-28T20:58:53.067Z,100564.50
2022-09-28T21:01:27.142Z,100574.91
2022-09-28T21:03:56.532Z,100572.72
2022-09-28T21:06:25.942Z,100570.56
2022-09-28T21:08:53.235Z,100574.28
2022-09-28T21:11:22.956Z,100575.69
2022-09-28T21:13:58.389Z,100578.94
2022-09-28T21:16:26.628Z,100581.03
2022-09-28T21:18:53.826Z,100586.81
2022-09-28T21:21:22.483Z,100586.34
2022-09-28T21:23:52.590Z,100589.88
2022-09-28T21:26:27.391Z,100590.25
2022-09-28T21:29:10.428Z,100600.50
2022-09-28T21:31:38.772Z,100598.09
2022-09-28T21:34:05.883Z,100592.19
2022-09-28T21:36:32.691Z,100595.09
2022-09-28T21:38:59.561Z,100593.56
2022-09-28T21:41:26.831Z,100597.50
2022-09-28T21:43:53.883Z,100597.66
2022-09-28T21:46:20.819Z,100594.94
2022-09-28T21:48:52.569Z,100606.00
2022-09-28T21:51:19.718Z,100598.00
2022-09-28T21:53:46.520Z,100601.91
2022-09-28T21:56:13.319Z,100606.50
2022-09-28T21:58:40.872Z,100604.81
2022-09-28T22:01:08.998Z,100605.16
2022-09-28T22:03:36.824Z,100612.66
2022-09-28T22:06:05.011Z,100615.56
2022-09-28T22:08:32.228Z,100616.38
2022-09-28T22:11:01.163Z,100620.16
2022-09-28T22:13:36.199Z,100615.56
2022-09-28T22:16:03.434Z,100612.00
2022-09-28T22:18:31.757Z,100618.44
2022-09-28T22:21:00.627Z,100620.47
2022-09-28T22:23:28.538Z,100615.41
2022-09-28T22:26:05.384Z,100626.28
2022-09-28T22:28:32.017Z,100620.19
2022-09-28T22:30:59.015Z,100619.50
2022-09-28T22:33:26.785Z,100616.13
2022-09-28T22:35:55.049Z,100623.41
2022-09-28T22:38:24.912Z,100629.22
2022-09-28T22:40:54.762Z,100621.22
2022-09-28T22:43:24.498Z,100621.22
2022-09-28T22:46:01.314Z,100623.94
2022-09-28T22:48:28.008Z,100618.88
2022-09-28T22:50:54.879Z,100625.31
2022-09-28T22:53:21.847Z,100629.94
2022-09-28T22:55:48.649Z,100631.13
2022-09-28T22:58:15.303Z,100629.75
2022-09-28T23:00:43.356Z,100629.94
2022-09-28T23:03:10.142Z,100629.59
2022-09-28T23:05:37.027Z,100629.78
2022-09-28T23:08:04.291Z,100638.28
2022-09-28T23:10:31.007Z,100627.75
2022-09-28T23:12:58.420Z,100645.09
2022-09-28T23:15:26.115Z,100641.69
2022-09-28T23:17:53.413Z,100635.59
2022-09-28T23:20:23.712Z,100630.50
2022-09-28T23:22:53.441Z,100638.16
2022-09-28T23:25:20.132Z,100644.78
2022-09-28T23:27:47.981Z,100643.41
2022-09-28T23:30:17.688Z,100645.81
2022-09-28T23:32:44.591Z,100644.47
2022-09-28T23:35:11.553Z,100640.56
2022-09-28T23:37:38.880Z,100640.88
2022-09-28T23:40:07.145Z,100634.09
2022-09-28T23:42:34.984Z,100640.72
2022-09-28T23:45:02.148Z,100644.63
2022-09-28T23:47:29.286Z,100636.81
2022-09-28T23:49:55.953Z,100633.59
2022-09-28T23:52:22.819Z,100638.34
2022-09-28T23:54:49.527Z,100636.84
2022-09-28T23:57:16.123Z,100638.84
2022-09-28T23:59:42.976Z,100634.59
